Time;durP1;ratioP1;P1;durP2;ratioP2;P2;SDS_P1;SDS_P2;PMS_P1;PMS_P2;Temp;Humidity;BMP_temperature;BMP_pressure;BME280_temperature;BME280_humidity;BME280_pressure;Samples;Min_cycle;Max_cycle;Signal;HPM_P1;HPM_P2
2022/07/01 00:00:20;;;;;;;3.93;1.50;;;14.80;99.90;;;;;;6031677;23;20444;-78
2022/07/01 00:02:48;;;;;;;1.27;1.10;;;14.80;99.90;;;;;;6030248;23;20460;-77
2022/07/01 00:05:16;;;;;;;1.33;1.20;;;14.80;99.90;;;;;;6023329;23;20440;-78
2022/07/01 00:07:43;;;;;;;1.70;1.00;;;14.70;99.90;;;;;;6028046;23;20467;-78
2022/07/01 00:10:10;;;;;;;2.90;1.20;;;14.70;99.90;;;;;;6018983;23;20448;-78
2022/07/01 00:12:37;;;;;;;1.13;0.93;;;14.70;99.90;;;;;;6006262;23;20472;-77
2022/07/01 00:15:05;;;;;;;1.57;1.20;;;14.60;99.90;;;;;;6025031;23;20452;-77
2022/07/01 00:17:32;;;;;;;1.10;1.00;;;14.50;99.90;;;;;;6032952;23;20448;-77
2022/07/01 00:20:00;;;;;;;1.10;1.00;;;14.50;99.90;;;;;;6028341;23;20451;-78
2022/07/01 00:22:28;;;;;;;1.13;1.03;;;14.40;99.90;;;;;;6023430;23;20491;-78
2022/07/01 00:24:55;;;;;;;2.03;1.10;;;14.20;99.90;;;;;;6022846;23;20447;-78
2022/07/01 00:27:22;;;;;;;3.50;1.33;;;14.20;99.90;;;;;;6026342;23;20445;-77
2022/07/01 00:29:49;;;;;;;2.53;1.10;;;14.10;99.90;;;;;;6024764;23;20886;-78
2022/07/01 00:32:16;;;;;;;1.73;1.10;;;14.10;99.90;;;;;;6017684;23;20987;-77
2022/07/01 00:34:44;;;;;;;1.60;0.97;;;14.10;99.90;;;;;;6026868;23;20448;-77
2022/07/01 00:37:12;;;;;;;1.97;1.10;;;14.10;99.90;;;;;;6032996;23;20474;-77
2022/07/01 00:39:39;;;;;;;1.37;1.10;;;14.00;99.90;;;;;;6031806;23;20543;-77
2022/07/01 00:42:06;;;;;;;1.67;1.00;;;14.00;99.90;;;;;;6021086;23;20482;-77
2022/07/01 00:44:33;;;;;;;1.25;1.15;;;13.90;99.90;;;;;;6023577;23;20440;-77
2022/07/01 00:47:04;;;;;;;1.10;1.00;;;13.90;99.90;;;;;;6033393;23;20190;-77
2022/07/01 00:49:32;;;;;;;1.83;1.27;;;13.90;99.90;;;;;;6024212;23;20216;-78
2022/07/01 00:51:59;;;;;;;1.23;1.07;;;13.90;99.90;;;;;;6028877;23;20789;-78
2022/07/01 00:54:28;;;;;;;2.00;1.33;;;13.90;99.90;;;;;;6019001;23;20960;-78
2022/07/01 00:56:55;;;;;;;1.40;1.30;;;14.00;99.90;;;;;;6032660;23;20193;-78
2022/07/01 00:59:22;;;;;;;2.63;1.30;;;14.10;99.90;;;;;;6030247;23;20460;-78
2022/07/01 01:01:49;;;;;;;2.17;1.10;;;14.10;99.90;;;;;;6013104;23;20456;-78
2022/07/01 01:04:16;;;;;;;1.20;1.00;;;14.20;99.90;;;;;;6026705;23;20437;-78
2022/07/01 01:06:43;;;;;;;1.13;1.00;;;14.10;99.90;;;;;;6011957;23;20193;-77
2022/07/01 01:09:11;;;;;;;1.20;1.10;;;14.10;99.90;;;;;;6018882;23;20476;-78
2022/07/01 01:11:40;;;;;;;1.42;1.10;;;14.00;99.90;;;;;;6032204;23;20471;-78
2022/07/01 01:14:07;;;;;;;1.30;1.20;;;14.00;99.90;;;;;;6014999;23;20638;-78
2022/07/01 01:16:35;;;;;;;1.67;1.20;;;14.00;99.90;;;;;;6031475;23;20194;-78
2022/07/01 01:19:05;;;;;;;1.10;1.00;;;14.00;99.90;;;;;;6026851;23;20649;-78
2022/07/01 01:21:33;;;;;;;1.77;1.20;;;14.00;99.90;;;;;;6017523;23;20293;-77
2022/07/01 01:24:01;;;;;;;1.20;1.00;;;13.90;99.90;;;;;;6027083;23;20989;-77
2022/07/01 01:26:28;;;;;;;1.45;1.10;;;13.90;99.90;;;;;;6031326;23;20839;-77
2022/07/01 01:28:55;;;;;;;1.10;0.90;;;13.90;99.90;;;;;;6027639;23;20217;-77
2022/07/01 01:31:30;;;;;;;1.20;1.10;;;13.90;99.90;;;;;;6033350;23;20193;-77
2022/07/01 01:33:57;;;;;;;2.15;1.38;;;13.90;99.90;;;;;;6029857;23;20287;-77
2022/07/01 01:36:24;;;;;;;1.00;0.85;;;13.90;99.90;;;;;;6015947;23;20531;-77
2022/07/01 01:38:53;;;;;;;1.58;1.20;;;13.80;99.90;;;;;;6025209;23;20231;-77
2022/07/01 01:41:20;;;;;;;2.70;1.00;;;13.80;99.90;;;;;;6013362;23;20189;-77
2022/07/01 01:43:47;;;;;;;1.53;1.43;;;13.80;99.90;;;;;;6021735;23;20523;-77
2022/07/01 01:46:14;;;;;;;1.83;1.00;;;13.90;99.90;;;;;;6030309;23;20440;-77
2022/07/01 01:48:42;;;;;;;2.30;1.00;;;13.80;99.90;;;;;;6032007;23;20252;-77
2022/07/01 01:51:09;;;;;;;1.70;1.25;;;13.90;99.90;;;;;;6028706;23;20466;-77
2022/07/01 01:53:36;;;;;;;1.37;0.90;;;13.90;99.90;;;;;;6019290;23;20292;-77
2022/07/01 01:56:04;;;;;;;1.23;1.13;;;13.90;99.90;;;;;;6023206;23;20466;-77
2022/07/01 01:58:31;;;;;;;1.85;1.25;;;13.90;99.90;;;;;;6021349;23;20444;-76
2022/07/01 02:00:58;;;;;;;1.20;1.10;;;13.80;99.90;;;;;;6030331;23;20271;-77
2022/07/01 02:03:25;;;;;;;1.20;1.10;;;13.90;99.90;;;;;;6031819;23;20217;-76
2022/07/01 02:05:52;;;;;;;1.33;1.10;;;13.80;99.90;;;;;;6010728;23;20224;-77
2022/07/01 02:08:19;;;;;;;1.70;1.50;;;13.90;99.90;;;;;;6026446;23;20637;-76
2022/07/01 02:10:47;;;;;;;1.50;1.40;;;13.90;99.90;;;;;;6032399;23;20193;-76
2022/07/01 02:13:15;;;;;;;2.00;1.50;;;13.90;99.90;;;;;;6026922;23;20240;-76
2022/07/01 02:15:42;;;;;;;2.33;1.23;;;13.90;99.90;;;;;;6017084;23;20197;-77
2022/07/01 02:18:09;;;;;;;2.35;1.30;;;14.00;99.90;;;;;;6024123;23;20220;-77
2022/07/01 02:20:36;;;;;;;1.90;1.80;;;14.00;99.90;;;;;;6033193;23;20224;-77
2022/07/01 02:23:03;;;;;;;1.30;1.20;;;14.00;99.90;;;;;;6025784;23;20547;-77
2022/07/01 02:25:30;;;;;;;4.90;1.45;;;14.00;99.90;;;;;;6018445;23;20268;-77
2022/07/01 02:27:58;;;;;;;1.60;1.50;;;14.00;99.90;;;;;;6026717;23;20199;-77
2022/07/01 02:30:26;;;;;;;1.67;1.23;;;14.00;99.90;;;;;;6006599;23;20483;-77
2022/07/01 02:32:54;;;;;;;1.48;1.30;;;14.00;99.90;;;;;;6020478;23;20464;-77
2022/07/01 02:35:21;;;;;;;1.40;1.30;;;14.00;99.90;;;;;;6030453;23;20676;-77
2022/07/01 02:37:48;;;;;;;1.40;1.30;;;14.00;99.90;;;;;;6025786;23;20480;-77
2022/07/01 02:40:15;;;;;;;1.33;1.23;;;14.00;99.90;;;;;;6005611;23;20185;-77
2022/07/01 02:42:42;;;;;;;1.73;1.40;;;14.00;99.90;;;;;;6018614;23;20475;-76
2022/07/01 02:45:09;;;;;;;2.45;1.45;;;14.00;99.90;;;;;;6023349;23;20193;-75
2022/07/01 02:47:39;;;;;;;2.10;1.50;;;14.00;99.90;;;;;;5998450;23;20692;-76
2022/07/01 02:50:08;;;;;;;2.20;1.50;;;14.00;99.90;;;;;;6022668;23;20227;-75
2022/07/01 02:52:35;;;;;;;1.70;1.50;;;14.10;99.90;;;;;;6019411;23;21064;-76
2022/07/01 02:55:03;;;;;;;1.30;1.20;;;14.10;99.90;;;;;;6032664;23;20264;-76
2022/07/01 02:57:30;;;;;;;1.30;1.20;;;14.10;99.90;;;;;;6025692;23;20448;-76
2022/07/01 02:59:57;;;;;;;1.33;1.20;;;14.10;99.90;;;;;;6026606;23;20475;-76
2022/07/01 03:02:25;;;;;;;1.43;1.33;;;14.10;99.90;;;;;;6004895;23;20825;-76
2022/07/01 03:04:54;;;;;;;1.40;1.30;;;14.10;99.90;;;;;;6025002;23;20479;-76
2022/07/01 03:07:21;;;;;;;1.73;1.60;;;14.10;99.90;;;;;;6024692;23;20457;-77
2022/07/01 03:09:48;;;;;;;1.33;1.23;;;14.10;99.90;;;;;;6029207;23;20476;-76
2022/07/01 03:12:34;;;;;;;1.80;1.30;;;14.00;99.90;;;;;;6031422;23;20879;-76
2022/07/01 03:15:03;;;;;;;2.00;1.10;;;14.10;99.90;;;;;;6025132;23;20983;-77
2022/07/01 03:17:31;;;;;;;1.20;1.10;;;14.10;99.90;;;;;;6032244;23;20444;-77
2022/07/01 03:20:01;;;;;;;1.30;1.17;;;14.10;99.90;;;;;;6028933;23;20523;-76
2022/07/01 03:22:29;;;;;;;1.30;1.20;;;14.10;99.90;;;;;;6021791;23;20564;-76
2022/07/01 03:24:57;;;;;;;2.17;1.13;;;14.10;99.90;;;;;;6022625;23;20444;-77
2022/07/01 03:27:25;;;;;;;1.30;1.20;;;14.20;99.90;;;;;;6024960;23;20452;-76
2022/07/01 03:29:52;;;;;;;1.30;1.20;;;14.10;99.90;;;;;;6019666;23;20479;-77
2022/07/01 03:32:19;;;;;;;2.50;1.67;;;14.20;99.90;;;;;;6056075;23;20479;-77
2022/07/01 03:34:49;;;;;;;1.40;1.30;;;14.10;99.90;;;;;;6040243;23;20514;-76
2022/07/01 03:37:18;;;;;;;1.40;1.30;;;14.20;99.90;;;;;;6025937;23;20523;-77
2022/07/01 03:39:45;;;;;;;2.50;1.40;;;14.20;99.90;;;;;;6016619;23;20471;-77
2022/07/01 03:42:13;;;;;;;2.00;1.43;;;14.20;99.90;;;;;;6033948;23;20494;-77
2022/07/01 03:44:40;;;;;;;1.70;1.60;;;14.20;99.90;;;;;;6026136;23;20440;-77
2022/07/01 03:47:08;;;;;;;1.97;1.87;;;14.20;99.90;;;;;;6023345;23;20440;-77
2022/07/01 03:49:36;;;;;;;1.70;1.60;;;14.20;99.90;;;;;;6021126;23;20468;-77
2022/07/01 03:52:03;;;;;;;1.60;1.50;;;14.30;99.90;;;;;;6026879;23;20499;-77
2022/07/01 03:54:32;;;;;;;1.73;1.37;;;14.20;99.90;;;;;;6017130;23;20440;-77
2022/07/01 03:57:00;;;;;;;2.13;1.60;;;14.20;99.90;;;;;;6026868;23;20456;-77
2022/07/01 03:59:28;;;;;;;1.80;1.70;;;14.20;99.90;;;;;;6031404;23;20470;-76
2022/07/01 04:01:56;;;;;;;1.60;1.50;;;14.20;99.90;;;;;;6033101;23;20452;-77
2022/07/01 04:04:23;;;;;;;1.70;1.60;;;14.20;99.90;;;;;;6029711;23;20444;-77
2022/07/01 04:06:51;;;;;;;1.80;1.70;;;14.30;99.90;;;;;;6030995;23;20451;-76
2022/07/01 04:09:18;;;;;;;1.70;1.53;;;14.30;99.90;;;;;;6022470;23;20498;-76
2022/07/01 04:11:48;;;;;;;1.63;1.53;;;14.30;99.90;;;;;;6029970;23;20468;-76
2022/07/01 04:14:16;;;;;;;1.70;1.60;;;14.30;99.90;;;;;;6031049;23;20444;-75
2022/07/01 04:16:45;;;;;;;1.93;1.70;;;14.30;99.90;;;;;;6031053;23;20448;-76
2022/07/01 04:19:14;;;;;;;3.90;1.60;;;14.40;99.90;;;;;;6030369;23;20452;-75
2022/07/01 04:24:26;;;;;;;1.50;1.40;;;14.50;99.90;;;;;;6018010;23;20436;-76
2022/07/01 04:26:55;;;;;;;2.57;1.90;;;14.50;99.90;;;;;;6017264;23;20826;-76
2022/07/01 04:29:22;;;;;;;1.90;1.80;;;14.60;99.90;;;;;;6026367;23;20843;-77
2022/07/01 04:31:49;;;;;;;2.70;2.40;;;14.50;99.90;;;;;;6026654;23;20979;-76
2022/07/01 04:34:18;;;;;;;2.03;1.93;;;14.50;99.90;;;;;;6012197;23;20476;-76
2022/07/01 04:36:44;;;;;;;2.47;2.10;;;14.50;99.90;;;;;;6015279;23;20440;-75
2022/07/01 04:39:12;;;;;;;2.30;2.20;;;14.40;99.90;;;;;;6025193;23;20494;-75
2022/07/01 04:44:25;;;;;;;2.70;2.25;;;14.30;99.90;;;;;;6013371;23;20444;-76
2022/07/01 04:46:52;;;;;;;2.90;2.57;;;14.40;99.90;;;;;;6031739;23;20193;-76
2022/07/01 04:49:19;;;;;;;2.20;2.10;;;14.40;99.90;;;;;;6019005;23;20522;-75
2022/07/01 04:51:46;;;;;;;2.50;2.30;;;14.40;99.90;;;;;;6031742;23;20546;-74
2022/07/01 04:54:13;;;;;;;2.07;1.97;;;14.50;99.90;;;;;;6020445;23;20528;-75
2022/07/01 04:56:40;;;;;;;2.60;2.27;;;14.60;99.90;;;;;;6019910;23;20491;-75
2022/07/01 04:59:08;;;;;;;2.70;2.50;;;14.70;99.90;;;;;;6010424;23;20432;-74
2022/07/01 05:01:36;;;;;;;2.13;2.03;;;14.70;99.90;;;;;;6018862;23;20527;-76
2022/07/01 05:04:03;;;;;;;2.70;2.50;;;14.80;99.90;;;;;;6017273;23;20437;-77
2022/07/01 05:06:30;;;;;;;2.17;2.07;;;14.80;99.90;;;;;;6018696;23;20445;-76
2022/07/01 05:08:57;;;;;;;2.53;2.40;;;14.80;99.90;;;;;;6018639;23;20466;-76
2022/07/01 05:11:24;;;;;;;2.77;2.47;;;14.80;99.90;;;;;;6014800;23;20484;-77
2022/07/01 05:13:51;;;;;;;2.97;2.57;;;14.80;99.90;;;;;;6018599;23;20436;-76
2022/07/01 05:16:19;;;;;;;2.80;2.60;;;14.80;99.90;;;;;;5993280;23;20527;-76
2022/07/01 05:24:17;;;;;;;2.90;2.63;;;14.70;99.90;;;;;;6013129;23;20448;-76
2022/07/01 05:26:44;;;;;;;3.03;2.80;;;14.60;99.90;;;;;;5989449;23;20584;-75
2022/07/01 05:29:11;;;;;;;2.95;2.75;;;14.50;99.90;;;;;;6018597;23;20428;-75
2022/07/01 05:31:38;;;;;;;3.10;2.90;;;14.40;99.90;;;;;;6012445;23;20703;-75
2022/07/01 05:34:07;;;;;;;2.77;2.57;;;14.20;99.90;;;;;;6017191;23;20209;-75
2022/07/01 05:36:34;;;;;;;3.10;2.80;;;14.10;99.90;;;;;;6018550;23;20441;-75
2022/07/01 05:39:02;;;;;;;3.60;3.30;;;14.10;99.90;;;;;;6018824;23;20433;-75
2022/07/01 05:41:29;;;;;;;6.83;3.77;;;14.10;99.90;;;;;;6017034;23;20984;-75
2022/07/01 05:43:57;;;;;;;4.82;4.10;;;14.10;99.90;;;;;;6016253;23;20947;-75
2022/07/01 05:46:23;;;;;;;4.25;3.65;;;14.10;99.90;;;;;;6015979;23;20204;-75
2022/07/01 05:48:51;;;;;;;4.00;3.70;;;14.20;99.90;;;;;;6016910;23;20561;-76
2022/07/01 05:51:19;;;;;;;3.30;3.10;;;14.20;99.90;;;;;;6016796;23;20214;-76
2022/07/01 05:53:47;;;;;;;3.80;3.50;;;14.20;99.90;;;;;;6016872;23;20440;-75
2022/07/01 05:56:14;;;;;;;3.55;3.35;;;14.10;99.90;;;;;;6016343;23;20451;-75
2022/07/01 05:58:41;;;;;;;4.30;3.90;;;14.10;99.90;;;;;;6016681;23;20545;-75
2022/07/01 06:01:08;;;;;;;3.90;3.60;;;14.10;99.90;;;;;;6016716;23;20280;-75
2022/07/01 06:03:37;;;;;;;3.33;3.03;;;14.10;99.90;;;;;;6016830;23;20472;-75
2022/07/01 06:06:04;;;;;;;3.23;2.80;;;14.10;99.90;;;;;;6017718;23;20943;-76
2022/07/01 06:08:34;;;;;;;2.93;2.57;;;14.10;99.90;;;;;;6013420;23;20443;-76
2022/07/01 06:11:01;;;;;;;3.20;3.00;;;14.10;99.90;;;;;;6019703;23;20477;-75
2022/07/01 06:13:29;;;;;;;2.20;2.10;;;14.20;99.90;;;;;;6012266;23;20808;-75
2022/07/01 06:15:58;;;;;;;2.80;2.60;;;14.10;99.90;;;;;;6016718;23;20448;-77
2022/07/01 06:18:25;;;;;;;2.70;2.50;;;14.10;99.90;;;;;;6015835;23;20193;-76
2022/07/01 06:20:53;;;;;;;2.90;2.70;;;14.20;99.90;;;;;;6018446;23;20630;-76
2022/07/01 06:23:20;;;;;;;2.37;2.17;;;14.30;99.90;;;;;;6019991;23;20545;-75
2022/07/01 06:25:49;;;;;;;2.90;2.60;;;14.30;99.90;;;;;;6021155;23;20520;-76
2022/07/01 06:28:16;;;;;;;2.70;2.50;;;14.40;99.90;;;;;;6019181;23;20433;-76
2022/07/01 06:30:44;;;;;;;2.80;2.60;;;14.40;99.90;;;;;;6021001;23;20881;-77
2022/07/01 06:33:12;;;;;;;2.30;2.10;;;14.40;99.90;;;;;;6018778;23;20437;-77
2022/07/01 06:35:39;;;;;;;2.43;2.23;;;14.40;99.90;;;;;;6025259;23;20437;-77
2022/07/01 06:38:06;;;;;;;1.87;1.77;;;14.40;99.90;;;;;;6027092;23;20924;-76
2022/07/01 06:40:34;;;;;;;2.17;2.07;;;14.30;99.90;;;;;;6019685;23;20440;-77
2022/07/01 06:43:02;;;;;;;2.53;2.37;;;14.30;99.90;;;;;;6030003;23;20440;-76
2022/07/01 06:45:30;;;;;;;2.23;2.00;;;14.30;99.90;;;;;;6029037;23;20963;-76
2022/07/01 06:47:57;;;;;;;2.30;2.20;;;14.30;99.90;;;;;;6018485;23;20598;-76
2022/07/01 06:50:24;;;;;;;2.00;1.90;;;14.30;99.90;;;;;;6027667;23;20476;-76
2022/07/01 06:52:51;;;;;;;2.60;2.40;;;14.30;99.90;;;;;;6019030;23;20915;-76
2022/07/01 06:55:18;;;;;;;2.70;2.07;;;14.30;99.90;;;;;;6029812;23;20436;-76
2022/07/01 06:57:45;;;;;;;2.83;2.50;;;14.50;99.90;;;;;;6013528;23;20448;-76
2022/07/01 07:00:15;;;;;;;2.13;2.03;;;14.60;99.90;;;;;;6029818;23;20483;-77
2022/07/01 07:02:42;;;;;;;1.90;1.80;;;14.70;99.90;;;;;;6025688;23;20440;-77
2022/07/01 07:05:09;;;;;;;2.00;1.90;;;14.70;99.90;;;;;;6016976;23;20437;-77
2022/07/01 07:07:37;;;;;;;1.77;1.67;;;14.80;99.90;;;;;;6026864;23;20441;-75
2022/07/01 07:10:05;;;;;;;2.20;1.80;;;14.90;99.90;;;;;;6008118;23;21902;-76
2022/07/01 07:12:32;;;;;;;2.13;1.93;;;14.90;99.90;;;;;;6020608;23;20824;-76
2022/07/01 07:14:59;;;;;;;1.50;1.40;;;14.90;99.90;;;;;;6031729;23;20508;-76
2022/07/01 07:17:27;;;;;;;1.60;1.50;;;14.90;99.90;;;;;;6018372;23;20468;-76
2022/07/01 07:19:55;;;;;;;2.10;1.63;;;14.90;99.90;;;;;;6005629;23;20441;-76
2022/07/01 07:22:23;;;;;;;1.60;1.50;;;15.00;99.90;;;;;;6030368;23;20530;-77
2022/07/01 07:24:50;;;;;;;1.80;1.70;;;15.00;99.90;;;;;;6030695;23;20778;-77
2022/07/01 07:27:17;;;;;;;1.80;1.70;;;15.00;99.90;;;;;;6028783;23;20874;-76
2022/07/01 07:29:44;;;;;;;2.00;1.80;;;15.10;99.90;;;;;;6033499;23;20440;-76
2022/07/01 07:32:11;;;;;;;1.70;1.60;;;15.00;99.90;;;;;;6033939;23;20961;-77
2022/07/01 07:34:40;;;;;;;1.83;1.73;;;15.00;99.90;;;;;;6036074;23;20436;-76
2022/07/01 07:37:07;;;;;;;1.97;1.87;;;15.00;99.90;;;;;;6019809;23;20441;-76
2022/07/01 07:39:36;;;;;;;2.40;2.17;;;15.00;99.90;;;;;;6016318;23;20519;-76
2022/07/01 07:42:05;;;;;;;2.10;1.90;;;15.00;99.90;;;;;;6019814;23;20555;-76
2022/07/01 07:44:32;;;;;;;4.80;2.33;;;15.10;99.90;;;;;;6027899;23;20464;-76
2022/07/01 07:46:59;;;;;;;2.50;2.10;;;15.10;99.90;;;;;;6027749;23;20489;-76
2022/07/01 07:49:26;;;;;;;2.70;2.50;;;15.20;99.90;;;;;;6015261;23;20847;-77
2022/07/01 07:51:54;;;;;;;2.60;2.00;;;15.30;99.90;;;;;;6023015;23;20472;-76
2022/07/01 07:54:22;;;;;;;2.90;2.70;;;15.40;99.90;;;;;;6010413;23;20993;-77
2022/07/01 07:56:49;;;;;;;2.43;2.27;;;15.40;99.90;;;;;;6016402;23;20457;-75
2022/07/01 07:59:16;;;;;;;2.57;2.30;;;15.30;99.90;;;;;;6030551;23;20436;-75
2022/07/01 08:01:43;;;;;;;2.73;2.13;;;15.30;99.90;;;;;;6030844;23;20475;-76
2022/07/01 08:04:10;;;;;;;2.53;2.37;;;15.30;99.90;;;;;;6019463;23;20966;-75
2022/07/01 08:06:37;;;;;;;2.30;2.20;;;15.30;99.90;;;;;;6028752;23;20440;-74
2022/07/01 08:09:06;;;;;;;2.67;2.47;;;15.30;99.90;;;;;;6031781;23;20479;-74
2022/07/01 08:11:33;;;;;;;2.97;2.77;;;15.30;99.90;;;;;;6019879;23;20489;-75
2022/07/01 08:14:00;;;;;;;3.50;2.70;;;15.30;99.90;;;;;;6023722;23;20459;-74
2022/07/01 08:16:27;;;;;;;2.63;2.43;;;15.20;99.90;;;;;;6027853;23;20931;-74
2022/07/01 08:18:54;;;;;;;3.03;2.83;;;15.30;99.90;;;;;;6024439;23;20444;-74
2022/07/01 08:21:21;;;;;;;3.60;3.10;;;15.40;99.90;;;;;;6017761;23;20859;-74
2022/07/01 08:23:48;;;;;;;3.93;2.60;;;15.30;99.90;;;;;;6024690;23;20443;-74
2022/07/01 08:26:17;;;;;;;2.80;2.60;;;15.30;99.90;;;;;;6023537;23;20440;-74
2022/07/01 08:28:44;;;;;;;2.90;2.70;;;15.30;99.90;;;;;;6028539;23;20433;-74
2022/07/01 08:31:12;;;;;;;2.73;2.53;;;15.20;99.90;;;;;;6010042;23;20475;-74
2022/07/01 08:33:39;;;;;;;4.17;3.77;;;15.20;99.90;;;;;;6026612;23;20443;-74
2022/07/01 08:36:06;;;;;;;3.23;2.93;;;15.20;99.90;;;;;;6029395;23;20499;-74
2022/07/01 08:38:33;;;;;;;2.90;2.70;;;15.30;99.90;;;;;;6031634;23;20940;-73
2022/07/01 08:41:01;;;;;;;3.40;3.10;;;15.40;99.90;;;;;;6019412;23;20824;-74
2022/07/01 08:43:29;;;;;;;3.10;2.90;;;15.40;99.90;;;;;;6033596;23;20445;-73
2022/07/01 08:46:01;;;;;;;3.47;3.27;;;15.50;99.90;;;;;;6030237;23;20441;-74
2022/07/01 08:48:28;;;;;;;3.33;3.03;;;15.60;99.90;;;;;;6010951;23;20483;-73
2022/07/01 08:50:55;;;;;;;2.80;2.60;;;15.60;99.90;;;;;;6028476;23;20464;-74
2022/07/01 08:53:23;;;;;;;2.73;2.53;;;15.70;99.90;;;;;;6023975;23;20865;-74
2022/07/01 08:58:36;;;;;;;2.97;2.77;;;15.60;99.90;;;;;;6017629;23;20503;-74
2022/07/01 09:01:14;;;;;;;2.70;2.50;;;15.60;99.90;;;;;;6019460;23;20466;-73
2022/07/01 09:03:43;;;;;;;3.50;3.20;;;15.50;99.90;;;;;;6028981;23;20437;-73
2022/07/01 09:06:16;;;;;;;3.53;2.90;;;15.50;99.90;;;;;;6028510;23;20511;-73
2022/07/01 09:08:44;;;;;;;2.97;2.77;;;15.50;99.90;;;;;;6017073;23;21527;-74
2022/07/01 09:11:16;;;;;;;3.20;3.00;;;15.40;99.90;;;;;;6018318;23;20461;-74
2022/07/01 09:13:46;;;;;;;4.10;3.30;;;15.40;99.90;;;;;;6029001;23;20942;-74
2022/07/01 09:16:14;;;;;;;3.33;3.13;;;15.30;99.90;;;;;;6031771;23;20442;-74
2022/07/01 09:18:42;;;;;;;3.10;2.70;;;15.30;99.90;;;;;;6015831;23;20436;-74
2022/07/01 09:21:13;;;;;;;3.23;3.03;;;15.30;99.90;;;;;;6024820;23;20487;-74
2022/07/01 09:23:40;;;;;;;2.63;2.43;;;15.30;99.90;;;;;;6031877;23;20943;-74
2022/07/01 09:26:07;;;;;;;3.07;2.77;;;15.30;99.90;;;;;;6018131;23;20428;-74
2022/07/01 09:28:35;;;;;;;3.80;3.50;;;15.30;99.90;;;;;;6018096;23;20440;-74
2022/07/01 09:31:03;;;;;;;3.73;3.43;;;15.40;99.90;;;;;;6012772;23;20828;-74
2022/07/01 09:33:30;;;;;;;3.17;2.97;;;15.50;99.90;;;;;;6027350;23;20437;-74
2022/07/01 09:35:59;;;;;;;3.23;2.93;;;15.50;99.90;;;;;;6032560;23;20490;-74
2022/07/01 09:38:27;;;;;;;3.30;3.00;;;15.50;99.90;;;;;;6024242;23;20440;-75
2022/07/01 09:40:56;;;;;;;3.33;2.93;;;15.60;99.90;;;;;;6014968;23;20486;-73
2022/07/01 09:43:26;;;;;;;3.03;2.70;;;15.60;99.90;;;;;;6030259;23;20570;-73
2022/07/01 09:45:56;;;;;;;3.33;3.03;;;15.70;99.90;;;;;;6026184;23;20555;-74
2022/07/01 09:48:26;;;;;;;3.50;3.20;;;15.80;99.90;;;;;;6033104;23;20448;-73
2022/07/01 09:50:54;;;;;;;2.63;2.43;;;15.80;99.90;;;;;;6023614;23;20464;-73
2022/07/01 09:53:21;;;;;;;2.37;2.27;;;15.80;99.90;;;;;;6026229;23;20490;-74
2022/07/01 09:55:48;;;;;;;2.27;2.17;;;15.80;99.90;;;;;;6026079;23;20458;-74
2022/07/01 09:58:15;;;;;;;3.00;2.53;;;15.70;99.90;;;;;;6026349;23;20803;-74
2022/07/01 10:00:43;;;;;;;2.47;2.37;;;15.60;99.90;;;;;;6032310;23;20458;-73
2022/07/01 10:03:11;;;;;;;3.37;2.27;;;15.40;99.90;;;;;;6017367;23;20437;-74
2022/07/01 10:05:46;;;;;;;2.80;2.50;;;15.40;99.90;;;;;;6029423;23;20799;-74
2022/07/01 10:08:33;;;;;;;2.40;2.20;;;15.40;99.90;;;;;;6021665;23;20518;-75
2022/07/01 10:11:23;;;;;;;2.37;2.17;;;15.50;99.90;;;;;;6028461;23;21054;-74
2022/07/01 10:13:51;;;;;;;2.40;2.20;;;15.70;99.90;;;;;;6020028;23;20444;-74
2022/07/01 10:16:20;;;;;;;2.60;2.40;;;16.00;99.90;;;;;;6018385;23;20514;-73
2022/07/01 10:18:47;;;;;;;2.10;1.97;;;16.40;99.90;;;;;;6020301;23;20468;-74
2022/07/01 10:21:29;;;;;;;2.03;1.83;;;16.80;99.90;;;;;;6029463;23;20476;-75
2022/07/01 10:24:13;;;;;;;3.10;2.10;;;17.00;99.90;;;;;;6028217;23;20446;-75
2022/07/01 10:26:40;;;;;;;1.90;1.80;;;17.10;99.90;;;;;;6018258;23;20436;-74
2022/07/01 10:29:28;;;;;;;3.20;1.70;;;17.30;99.90;;;;;;6025553;23;20444;-75
2022/07/01 10:32:00;;;;;;;1.70;1.60;;;17.60;99.90;;;;;;6028595;23;21194;-75
2022/07/01 10:34:35;;;;;;;1.70;1.60;;;18.00;99.90;;;;;;6015414;23;20452;-75
2022/07/01 10:37:06;;;;;;;1.87;1.73;;;18.60;99.90;;;;;;6030936;23;20431;-75
2022/07/01 10:39:55;;;;;;;2.83;1.30;;;19.00;99.90;;;;;;6025362;23;20437;-75
2022/07/01 10:42:29;;;;;;;1.20;1.10;;;19.30;99.90;;;;;;6028213;23;20507;-75
2022/07/01 10:45:10;;;;;;;1.60;1.23;;;19.40;99.90;;;;;;6025175;23;20440;-75
2022/07/01 10:47:38;;;;;;;1.67;1.20;;;19.70;99.90;;;;;;6031598;23;20443;-73
2022/07/01 10:50:07;;;;;;;1.30;1.10;;;20.10;99.90;;;;;;6023951;23;20784;-73
2022/07/01 10:52:36;;;;;;;1.40;1.30;;;20.20;99.90;;;;;;6028086;23;20472;-73
2022/07/01 10:55:05;;;;;;;2.03;1.47;;;20.00;99.90;;;;;;6017905;23;20441;-73
2022/07/01 10:57:37;;;;;;;1.53;1.30;;;20.10;99.90;;;;;;6019686;23;20440;-73
2022/07/01 11:00:32;;;;;;;2.00;1.40;;;20.30;99.90;;;;;;6021036;23;20442;-73
2022/07/01 11:03:20;;;;;;;1.50;1.20;;;20.60;99.90;;;;;;6030664;23;20791;-73
2022/07/01 11:05:49;;;;;;;1.30;1.10;;;20.90;99.90;;;;;;6024325;23;20432;-73
2022/07/01 11:08:18;;;;;;;1.20;1.10;;;21.10;99.90;;;;;;6032615;23;20478;-73
2022/07/01 11:10:50;;;;;;;1.50;1.40;;;21.70;99.90;;;;;;6025913;23;20458;-73
2022/07/01 11:13:18;;;;;;;1.80;1.30;;;22.70;99.90;;;;;;6026926;23;20475;-74
2022/07/01 11:15:46;;;;;;;1.97;1.63;;;23.00;99.90;;;;;;6025833;23;21107;-74
2022/07/01 11:18:15;;;;;;;2.50;1.67;;;23.20;99.90;;;;;;6034544;23;20440;-75
2022/07/01 11:20:43;;;;;;;1.73;1.17;;;23.80;99.90;;;;;;6022927;23;20970;-74
2022/07/01 11:23:10;;;;;;;1.97;1.10;;;24.10;99.90;;;;;;6015253;23;20448;-75
2022/07/01 11:25:39;;;;;;;1.30;1.10;;;24.70;99.90;;;;;;6020304;23;20527;-76
2022/07/01 11:28:06;;;;;;;1.20;1.03;;;24.80;99.90;;;;;;6017318;23;20516;-76
2022/07/01 11:30:33;;;;;;;1.20;1.10;;;24.90;99.90;;;;;;6029595;23;20551;-76
2022/07/01 11:33:00;;;;;;;1.30;1.20;;;24.90;99.90;;;;;;6020243;23;20815;-76
2022/07/01 11:41:04;;;;;;;1.50;1.20;;;24.40;99.90;;;;;;6023080;23;20547;-76
2022/07/01 11:43:33;;;;;;;1.50;1.20;;;24.40;99.90;;;;;;6018816;23;20444;-76
2022/07/01 11:46:02;;;;;;;1.50;1.30;;;24.40;99.90;;;;;;6021959;23;20447;-76
2022/07/01 11:48:32;;;;;;;2.07;1.40;;;24.10;99.90;;;;;;6015965;23;20452;-76
2022/07/01 11:51:00;;;;;;;1.37;1.27;;;23.80;99.90;;;;;;6018565;23;20471;-76
2022/07/01 11:53:28;;;;;;;1.97;1.20;;;23.30;99.90;;;;;;6027712;23;20559;-76
2022/07/01 11:55:55;;;;;;;2.43;1.30;;;22.90;99.90;;;;;;6018584;23;20527;-76
2022/07/01 11:58:23;;;;;;;1.90;1.30;;;22.50;99.90;;;;;;6031282;23;20515;-76
2022/07/01 12:00:51;;;;;;;1.33;1.23;;;22.00;99.90;;;;;;6027163;23;20557;-76
2022/07/01 12:03:31;;;;;;;1.40;1.30;;;21.70;99.90;;;;;;6015227;23;20461;-76
2022/07/01 12:05:59;;;;;;;1.50;1.20;;;21.60;99.90;;;;;;6017383;23;20448;-76
2022/07/01 12:08:26;;;;;;;4.20;1.47;;;21.50;99.90;;;;;;6027354;23;20523;-76
2022/07/01 12:10:54;;;;;;;1.90;1.70;;;21.20;99.90;;;;;;6010860;23;21943;-76
2022/07/01 12:13:26;;;;;;;1.47;1.20;;;20.70;99.90;;;;;;6012831;23;20464;-76
2022/07/01 12:15:53;;;;;;;4.17;1.80;;;20.50;99.90;;;;;;6021716;23;20452;-75
2022/07/01 12:18:21;;;;;;;2.13;1.70;;;20.30;99.90;;;;;;6025773;23;20445;-75
2022/07/01 12:20:51;;;;;;;2.27;1.50;;;20.20;99.90;;;;;;6022418;23;20507;-75
2022/07/01 12:23:19;;;;;;;2.10;1.30;;;20.10;99.90;;;;;;6024587;23;20947;-75
2022/07/01 12:25:50;;;;;;;1.50;1.40;;;19.70;99.90;;;;;;6019678;23;20499;-75
2022/07/01 12:28:29;;;;;;;1.47;1.37;;;19.80;99.90;;;;;;6029362;23;20499;-76
2022/07/01 12:31:01;;;;;;;2.27;1.30;;;20.20;99.90;;;;;;6031800;23;20474;-76
2022/07/01 12:33:28;;;;;;;1.63;1.40;;;20.70;99.90;;;;;;6016416;23;20469;-74
2022/07/01 12:35:56;;;;;;;1.67;1.30;;;21.20;99.90;;;;;;6022320;23;20445;-74
2022/07/01 12:38:23;;;;;;;1.40;1.30;;;21.90;99.90;;;;;;6018487;23;20459;-81
2022/07/01 12:40:50;;;;;;;1.30;1.20;;;22.50;99.90;;;;;;6025331;23;20547;-77
2022/07/01 12:43:32;;;;;;;2.67;1.30;;;22.90;99.90;;;;;;6029039;23;20447;-75
2022/07/01 12:46:01;;;;;;;3.53;2.03;;;23.10;99.90;;;;;;6022181;23;20428;-76
2022/07/01 12:48:28;;;;;;;1.90;1.80;;;23.10;99.90;;;;;;6031368;23;20527;-77
2022/07/01 12:50:57;;;;;;;2.33;1.60;;;23.20;99.90;;;;;;6017076;23;20456;-77
2022/07/01 12:53:25;;;;;;;1.70;1.40;;;22.90;99.90;;;;;;6026945;23;20815;-75
2022/07/01 12:55:54;;;;;;;1.80;1.60;;;22.90;99.90;;;;;;6029676;23;20812;-75
2022/07/01 12:58:22;;;;;;;2.10;1.50;;;22.90;99.90;;;;;;6023134;23;20549;-74
2022/07/01 13:00:52;;;;;;;1.40;1.30;;;22.60;99.90;;;;;;6020656;23;20487;-74
2022/07/01 13:03:22;;;;;;;1.50;1.40;;;22.30;99.90;;;;;;6021650;23;20518;-74
2022/07/01 13:05:50;;;;;;;4.17;1.60;;;22.00;99.90;;;;;;6031920;23;20947;-74
2022/07/01 13:08:18;;;;;;;1.80;1.23;;;22.00;99.90;;;;;;6018221;23;20437;-74
2022/07/01 13:10:45;;;;;;;2.00;1.30;;;21.90;99.90;;;;;;6030576;23;20535;-74
2022/07/01 13:13:13;;;;;;;1.67;1.33;;;21.90;99.90;;;;;;6017926;23;20480;-74